Time;durP1;ratioP1;P1;durP2;ratioP2;P2;SDS_P1;SDS_P2;PMS_P1;PMS_P2;Temp;Humidity;BMP_temperature;BMP_pressure;BME280_temperature;BME280_humidity;BME280_pressure;Samples;Min_cycle;Max_cycle;Signal;HPM_P1;HPM_P2
2023/12/18 00:01:09;;;;;;;16.45;8.88;;;;;;;;;;6061486;23;20570;-88
2023/12/18 00:03:40;;;;;;;15.88;9.25;;;;;;;;;;6038918;23;20385;-87
2023/12/18 00:06:11;;;;;;;18.08;9.07;;;;;;;;;;6117958;23;20002;-89
2023/12/18 00:08:40;;;;;;;16.08;8.98;;;;;;;;;;6127152;23;20006;-88
2023/12/18 00:11:05;;;;;;;16.35;9.05;;;;;;;;;;6127298;23;20088;-88
2023/12/18 00:13:31;;;;;;;18.63;9.30;;;;;;;;;;6126908;23;20040;-88
2023/12/18 00:15:56;;;;;;;17.58;9.55;;;;;;;;;;6126676;23;20041;-89
2023/12/18 00:18:34;;;;;;;16.45;8.68;;;;;;;;;;6127021;23;20009;-89
2023/12/18 00:21:03;;;;;;;17.27;8.85;;;;;;;;;;6126301;23;20016;-88
2023/12/18 00:23:28;;;;;;;16.45;8.85;;;;;;;;;;6153029;23;20009;-88
2023/12/18 00:25:54;;;;;;;20.42;9.60;;;;;;;;;;6126827;23;20024;-88
2023/12/18 00:28:19;;;;;;;19.52;10.10;;;;;;;;;;6125432;23;20005;-88
2023/12/18 00:30:45;;;;;;;16.70;9.25;;;;;;;;;;6151673;23;20408;-88
2023/12/18 00:33:10;;;;;;;17.15;8.95;;;;;;;;;;6152232;23;20029;-89
2023/12/18 00:35:54;;;;;;;16.58;10.00;;;;;;;;;;6126988;23;20506;-88
2023/12/18 00:38:19;;;;;;;15.30;9.15;;;;;;;;;;6151064;23;20001;-89
2023/12/18 00:40:54;;;;;;;15.38;8.65;;;;;;;;;;6102832;23;20017;-87
2023/12/18 00:43:25;;;;;;;15.40;8.48;;;;;;;;;;6126300;23;20013;-86
2023/12/18 00:45:51;;;;;;;16.17;9.35;;;;;;;;;;6125538;23;20001;-86
2023/12/18 00:48:25;;;;;;;16.40;8.90;;;;;;;;;;6126962;23;20008;-87
2023/12/18 00:50:50;;;;;;;13.90;9.00;;;;;;;;;;6127653;23;20016;-86
2023/12/18 00:53:16;;;;;;;15.00;9.55;;;;;;;;;;6152547;23;20423;-87
2023/12/18 00:55:51;;;;;;;16.98;9.55;;;;;;;;;;6153172;23;20005;-87
2023/12/18 00:58:17;;;;;;;15.48;9.18;;;;;;;;;;6152907;23;20088;-86
2023/12/18 01:01:33;;;;;;;16.75;8.98;;;;;;;;;;6153099;23;20033;-86
2023/12/18 01:04:07;;;;;;;15.80;9.07;;;;;;;;;;6061626;23;20107;-86
2023/12/18 01:06:34;;;;;;;14.82;9.32;;;;;;;;;;6039031;23;20017;-86
2023/12/18 01:09:00;;;;;;;15.50;9.30;;;;;;;;;;6062736;23;20010;-86
2023/12/18 01:11:43;;;;;;;18.30;9.75;;;;;;;;;;6063383;23;20460;-87
2023/12/18 01:14:18;;;;;;;15.20;8.77;;;;;;;;;;6068174;23;20494;-87
2023/12/18 01:16:46;;;;;;;14.65;9.32;;;;;;;;;;6152316;23;20001;-87
2023/12/18 01:19:20;;;;;;;14.75;9.30;;;;;;;;;;6128094;23;20387;-88
2023/12/18 01:25:33;;;;;;;16.05;9.55;;;;;;;;;;5978534;24;20035;-87
2023/12/18 01:27:59;;;;;;;18.80;10.02;;;;;;;;;;5938810;24;20004;-87
2023/12/18 01:30:31;;;;;;;15.52;9.32;;;;;;;;;;6024675;23;20500;-86
2023/12/18 01:33:06;;;;;;;18.83;9.93;;;;;;;;;;6091880;23;20519;-87
2023/12/18 01:35:44;;;;;;;18.70;9.65;;;;;;;;;;6069165;23;20436;-86
2023/12/18 01:38:10;;;;;;;13.77;9.45;;;;;;;;;;6093224;23;20010;-87
2023/12/18 01:40:44;;;;;;;18.83;10.07;;;;;;;;;;6092752;23;20053;-87
2023/12/18 01:43:42;;;;;;;17.42;9.55;;;;;;;;;;6092646;23;20006;-87
2023/12/18 01:46:18;;;;;;;16.23;9.45;;;;;;;;;;6092565;23;20490;-86
2023/12/18 01:48:50;;;;;;;16.45;9.48;;;;;;;;;;6066029;23;20061;-86
2023/12/18 01:51:22;;;;;;;18.13;10.27;;;;;;;;;;6068381;23;20002;-88
2023/12/18 01:54:07;;;;;;;19.45;10.55;;;;;;;;;;6069444;23;20631;-87
2023/12/18 01:56:34;;;;;;;16.27;9.43;;;;;;;;;;6069829;23;20141;-88
2023/12/18 02:01:54;;;;;;;16.40;9.15;;;;;;;;;;6093402;23;20150;-87
2023/12/18 02:04:22;;;;;;;17.45;10.10;;;;;;;;;;6069949;23;20460;-87
2023/12/18 02:06:48;;;;;;;16.90;9.60;;;;;;;;;;6155304;23;20463;-87
2023/12/18 02:09:17;;;;;;;17.50;9.63;;;;;;;;;;6128050;23;20005;-87
2023/12/18 02:11:48;;;;;;;17.95;10.45;;;;;;;;;;6128379;23;20020;-86
2023/12/18 02:14:26;;;;;;;16.00;9.82;;;;;;;;;;6152333;23;20431;-86
2023/12/18 02:17:23;;;;;;;21.10;10.07;;;;;;;;;;6154340;23;20013;-87
2023/12/18 02:23:13;;;;;;;15.65;9.45;;;;;;;;;;6047829;23;20073;-86
2023/12/18 02:25:48;;;;;;;18.90;9.93;;;;;;;;;;6092104;23;20097;-89
2023/12/18 02:28:16;;;;;;;19.67;9.75;;;;;;;;;;6119242;23;20002;-88
2023/12/18 02:30:52;;;;;;;18.23;10.45;;;;;;;;;;6124556;23;20032;-88
2023/12/18 02:33:17;;;;;;;22.00;10.52;;;;;;;;;;6122226;23;20014;-88
2023/12/18 02:35:43;;;;;;;17.50;10.02;;;;;;;;;;6122200;23;20097;-88
2023/12/18 02:41:30;;;;;;;17.83;9.63;;;;;;;;;;6119829;23;20048;-88
2023/12/18 02:43:58;;;;;;;15.07;9.23;;;;;;;;;;6096506;23;20048;-88
2023/12/18 02:46:26;;;;;;;17.23;9.85;;;;;;;;;;6095912;23;20009;-88
2023/12/18 02:48:52;;;;;;;17.50;10.45;;;;;;;;;;6096589;23;20013;-88
2023/12/18 02:51:17;;;;;;;21.02;10.88;;;;;;;;;;6097736;23;20009;-88
2023/12/18 02:53:45;;;;;;;17.92;10.95;;;;;;;;;;6095226;23;20009;-89
2023/12/18 02:56:13;;;;;;;17.67;10.07;;;;;;;;;;6120344;23;20006;-87
2023/12/18 02:58:38;;;;;;;19.17;10.82;;;;;;;;;;6088750;23;20511;-87
2023/12/18 03:01:06;;;;;;;17.90;10.02;;;;;;;;;;6090884;23;20010;-86
2023/12/18 03:03:32;;;;;;;17.02;10.65;;;;;;;;;;6089469;23;20066;-86
2023/12/18 03:05:57;;;;;;;21.02;10.65;;;;;;;;;;6089135;23;20186;-86
2023/12/18 03:08:31;;;;;;;15.93;10.05;;;;;;;;;;6088410;23;20009;-87
2023/12/18 03:10:57;;;;;;;18.30;9.30;;;;;;;;;;6089238;23;20006;-87
2023/12/18 03:13:48;;;;;;;17.23;10.18;;;;;;;;;;6089363;23;20085;-87
2023/12/18 03:16:17;;;;;;;21.30;9.75;;;;;;;;;;6089033;23;20017;-86
2023/12/18 03:18:51;;;;;;;20.33;10.20;;;;;;;;;;6050808;23;20060;-86
2023/12/18 03:21:16;;;;;;;18.05;10.52;;;;;;;;;;6060513;23;20042;-87
2023/12/18 03:23:42;;;;;;;17.05;10.05;;;;;;;;;;6060297;23;20010;-87
2023/12/18 03:26:10;;;;;;;18.35;10.05;;;;;;;;;;6087725;23;20456;-87
2023/12/18 03:28:35;;;;;;;19.02;10.98;;;;;;;;;;6067730;23;20408;-87
2023/12/18 03:31:18;;;;;;;19.27;10.65;;;;;;;;;;6120786;23;20014;-87
2023/12/18 03:33:44;;;;;;;17.02;9.98;;;;;;;;;;6119530;23;20009;-87
2023/12/18 03:36:12;;;;;;;18.25;10.35;;;;;;;;;;6120632;23;20009;-87
2023/12/18 03:38:38;;;;;;;18.75;9.98;;;;;;;;;;6121369;23;20510;-86
2023/12/18 03:41:03;;;;;;;21.77;10.32;;;;;;;;;;6121833;23;20002;-86
2023/12/18 03:43:29;;;;;;;21.05;11.02;;;;;;;;;;6120602;23;19998;-87
2023/12/18 03:45:54;;;;;;;15.25;9.40;;;;;;;;;;6120245;23;20013;-86
2023/12/18 03:48:22;;;;;;;15.93;10.18;;;;;;;;;;6121742;23;20009;-86
2023/12/18 03:50:48;;;;;;;15.73;9.90;;;;;;;;;;6120804;23;20006;-86
2023/12/18 03:53:13;;;;;;;19.40;11.23;;;;;;;;;;6119404;23;20008;-86
2023/12/18 03:55:39;;;;;;;18.50;10.70;;;;;;;;;;6119275;23;20092;-86
2023/12/18 03:58:30;;;;;;;18.42;10.15;;;;;;;;;;6120422;23;20016;-86
2023/12/18 04:01:04;;;;;;;15.57;10.20;;;;;;;;;;6119833;23;20017;-88
2023/12/18 04:03:30;;;;;;;18.08;10.80;;;;;;;;;;6120622;23;20006;-88
2023/12/18 04:06:14;;;;;;;18.05;9.75;;;;;;;;;;6120741;23;20078;-88
2023/12/18 04:08:40;;;;;;;18.42;9.82;;;;;;;;;;6121866;23;20006;-87
2023/12/18 04:11:22;;;;;;;18.08;10.27;;;;;;;;;;6122187;23;20013;-88
2023/12/18 04:13:50;;;;;;;17.90;11.05;;;;;;;;;;6120965;23;20077;-87
2023/12/18 04:16:31;;;;;;;17.90;9.90;;;;;;;;;;6120309;23;20009;-88
2023/12/18 04:19:26;;;;;;;17.45;10.45;;;;;;;;;;6121683;23;20490;-88
2023/12/18 04:21:57;;;;;;;16.83;10.05;;;;;;;;;;6064314;23;20006;-88
2023/12/18 04:24:41;;;;;;;16.65;9.70;;;;;;;;;;6121587;23;20320;-87
2023/12/18 04:27:06;;;;;;;19.38;10.25;;;;;;;;;;6121296;23;20005;-88
2023/12/18 04:29:35;;;;;;;18.55;10.63;;;;;;;;;;6122374;23;20028;-87
2023/12/18 04:32:09;;;;;;;19.13;10.48;;;;;;;;;;6129163;23;20439;-87
2023/12/18 04:34:35;;;;;;;17.20;11.02;;;;;;;;;;6122668;23;20025;-88
2023/12/18 04:37:18;;;;;;;18.40;10.75;;;;;;;;;;6123785;23;20010;-87
2023/12/18 04:39:44;;;;;;;20.30;10.63;;;;;;;;;;6123015;23;20006;-87
2023/12/18 04:45:16;;;;;;;18.02;10.93;;;;;;;;;;6092774;23;20017;-87
2023/12/18 04:47:50;;;;;;;18.35;10.93;;;;;;;;;;6067039;23;20006;-87
2023/12/18 04:50:36;;;;;;;20.90;11.23;;;;;;;;;;6067473;23;20118;-87
2023/12/18 04:53:44;;;;;;;18.45;10.77;;;;;;;;;;6068785;23;20005;-87
2023/12/18 04:56:12;;;;;;;19.30;11.10;;;;;;;;;;6067876;23;20314;-87
2023/12/18 04:58:53;;;;;;;18.65;11.18;;;;;;;;;;6067965;23;20011;-87
2023/12/18 05:01:45;;;;;;;18.23;11.50;;;;;;;;;;6066755;23;20010;-88
2023/12/18 05:04:19;;;;;;;22.65;11.32;;;;;;;;;;6058412;23;20006;-88
2023/12/18 05:06:46;;;;;;;17.85;10.90;;;;;;;;;;6103482;23;20018;-87
2023/12/18 05:09:39;;;;;;;17.30;10.98;;;;;;;;;;6124116;23;20006;-88
2023/12/18 05:12:05;;;;;;;19.27;11.45;;;;;;;;;;6103544;23;20444;-88
2023/12/18 05:14:30;;;;;;;20.02;11.40;;;;;;;;;;6120928;23;20068;-87
2023/12/18 05:16:57;;;;;;;20.20;11.30;;;;;;;;;;6123700;23;20586;-87
2023/12/18 05:19:23;;;;;;;18.23;10.63;;;;;;;;;;6123966;23;20431;-88
2023/12/18 05:22:04;;;;;;;22.30;11.60;;;;;;;;;;6122181;23;20005;-87
2023/12/18 05:29:45;;;;;;;22.35;12.05;;;;;;;;;;6205762;23;20024;-87
2023/12/18 05:32:38;;;;;;;21.77;10.80;;;;;;;;;;6185278;23;20426;-87
2023/12/18 05:35:07;;;;;;;22.90;11.13;;;;;;;;;;6184858;23;20004;-87
2023/12/18 05:37:32;;;;;;;24.27;11.73;;;;;;;;;;6185630;23;20338;-87
2023/12/18 05:39:58;;;;;;;18.63;11.93;;;;;;;;;;6185082;23;20004;-87
2023/12/18 05:42:23;;;;;;;18.60;10.85;;;;;;;;;;6187389;23;20028;-87
2023/12/18 05:44:51;;;;;;;21.60;12.02;;;;;;;;;;6184883;23;20000;-87
2023/12/18 05:47:17;;;;;;;17.15;11.10;;;;;;;;;;6186198;23;20502;-87
2023/12/18 05:49:46;;;;;;;16.83;10.68;;;;;;;;;;6185653;23;20011;-87
2023/12/18 05:52:11;;;;;;;17.98;11.18;;;;;;;;;;6185310;23;20438;-85
2023/12/18 05:54:45;;;;;;;21.42;12.38;;;;;;;;;;6185549;23;20013;-87
2023/12/18 05:57:17;;;;;;;20.98;11.63;;;;;;;;;;6183837;23;20015;-87
2023/12/18 05:59:48;;;;;;;19.45;11.65;;;;;;;;;;6182049;23;20426;-87
2023/12/18 06:02:20;;;;;;;19.83;11.82;;;;;;;;;;6183344;23;20142;-88
2023/12/18 06:05:27;;;;;;;19.55;11.45;;;;;;;;;;6181490;23;20008;-89
2023/12/18 06:08:34;;;;;;;20.92;11.35;;;;;;;;;;6110033;23;20074;-89
2023/12/18 06:11:03;;;;;;;20.92;10.68;;;;;;;;;;6179661;23;20759;-89
2023/12/18 06:13:35;;;;;;;22.15;11.00;;;;;;;;;;6186368;23;20498;-89
2023/12/18 06:16:01;;;;;;;20.85;11.32;;;;;;;;;;6188686;23;20079;-88
2023/12/18 06:18:33;;;;;;;23.00;11.25;;;;;;;;;;6185936;23;20019;-88
2023/12/18 06:21:05;;;;;;;21.90;11.63;;;;;;;;;;6188443;23;20067;-88
2023/12/18 06:27:29;;;;;;;20.00;11.02;;;;;;;;;;6039573;23;20011;-88
2023/12/18 06:30:37;;;;;;;17.73;10.80;;;;;;;;;;6062848;23;20842;-87
2023/12/18 06:33:11;;;;;;;22.05;10.77;;;;;;;;;;6008466;23;20015;-88
2023/12/18 06:35:54;;;;;;;21.65;11.48;;;;;;;;;;6009831;23;20404;-88
2023/12/18 06:38:21;;;;;;;19.63;11.75;;;;;;;;;;6009169;23;20019;-88
2023/12/18 06:40:47;;;;;;;19.83;11.23;;;;;;;;;;6010994;23;20467;-88
2023/12/18 06:43:42;;;;;;;19.77;11.38;;;;;;;;;;6011028;23;20010;-88
2023/12/18 06:46:36;;;;;;;19.02;11.32;;;;;;;;;;6001596;23;20046;-88
2023/12/18 06:49:03;;;;;;;18.77;11.50;;;;;;;;;;5954987;24;20012;-88
2023/12/18 06:51:29;;;;;;;23.45;12.07;;;;;;;;;;6119438;23;20576;-86
2023/12/18 06:54:15;;;;;;;21.67;10.88;;;;;;;;;;6184829;23;20028;-86
2023/12/18 06:56:46;;;;;;;19.70;11.50;;;;;;;;;;6157351;23;20019;-86
2023/12/18 06:59:19;;;;;;;20.92;12.18;;;;;;;;;;6158077;23;20017;-86
2023/12/18 07:01:47;;;;;;;23.90;12.10;;;;;;;;;;6158497;23;20005;-86
2023/12/18 07:04:21;;;;;;;18.95;11.05;;;;;;;;;;6184188;23;20005;-88
2023/12/18 07:06:47;;;;;;;22.10;11.95;;;;;;;;;;6157458;23;20009;-88
2023/12/18 07:09:12;;;;;;;18.70;10.77;;;;;;;;;;6158424;23;20010;-88
2023/12/18 07:12:02;;;;;;;24.73;12.50;;;;;;;;;;6158695;23;20362;-88
2023/12/18 07:14:31;;;;;;;20.10;11.30;;;;;;;;;;6158589;23;20059;-88
2023/12/18 07:16:56;;;;;;;18.92;10.98;;;;;;;;;;6158735;23;20005;-88
2023/12/18 07:19:21;;;;;;;20.05;11.68;;;;;;;;;;6184887;23;20015;-88
2023/12/18 07:21:47;;;;;;;19.85;11.77;;;;;;;;;;6158077;23;20019;-88
2023/12/18 07:24:41;;;;;;;20.65;12.13;;;;;;;;;;6156468;23;20001;-88
2023/12/18 07:27:29;;;;;;;22.48;11.95;;;;;;;;;;6182906;23;20462;-88
2023/12/18 07:32:55;;;;;;;21.10;11.32;;;;;;;;;;6184227;23;20008;-86
2023/12/18 07:35:29;;;;;;;22.60;12.77;;;;;;;;;;6153264;23;20013;-88
2023/12/18 07:38:20;;;;;;;19.63;11.45;;;;;;;;;;6128847;23;20013;-88
2023/12/18 07:40:48;;;;;;;19.30;10.80;;;;;;;;;;6128403;23;20009;-88
2023/12/18 07:43:20;;;;;;;21.23;12.18;;;;;;;;;;6103946;23;20025;-88
2023/12/18 07:45:46;;;;;;;20.92;11.90;;;;;;;;;;6127924;23;20009;-86
2023/12/18 07:48:21;;;;;;;17.63;11.20;;;;;;;;;;6128251;23;20033;-86
2023/12/18 07:51:21;;;;;;;18.20;11.07;;;;;;;;;;6128206;23;20330;-86
2023/12/18 07:53:47;;;;;;;21.25;11.35;;;;;;;;;;6128127;23;20009;-88
2023/12/18 07:56:22;;;;;;;23.67;11.90;;;;;;;;;;6127811;23;20005;-88
2023/12/18 07:59:07;;;;;;;20.60;11.75;;;;;;;;;;6128743;23;20041;-88
2023/12/18 08:01:58;;;;;;;23.60;12.15;;;;;;;;;;6128506;23;20032;-88
2023/12/18 08:05:14;;;;;;;23.08;12.48;;;;;;;;;;6128847;23;20005;-88
2023/12/18 08:08:42;;;;;;;21.83;12.05;;;;;;;;;;6126646;23;20346;-88
2023/12/18 08:11:26;;;;;;;18.98;11.38;;;;;;;;;;6086634;23;20032;-89
2023/12/18 08:13:51;;;;;;;21.98;11.82;;;;;;;;;;6128435;23;20478;-88
2023/12/18 08:16:17;;;;;;;20.70;11.98;;;;;;;;;;6128220;23;20040;-88
2023/12/18 08:19:00;;;;;;;24.48;12.25;;;;;;;;;;6153452;23;20044;-88
2023/12/18 08:21:51;;;;;;;21.65;11.13;;;;;;;;;;6128988;23;20001;-88
2023/12/18 08:24:42;;;;;;;20.17;11.90;;;;;;;;;;6117166;23;20020;-87
2023/12/18 08:27:11;;;;;;;20.58;11.70;;;;;;;;;;6127921;23;20005;-89
2023/12/18 08:30:33;;;;;;;21.02;12.10;;;;;;;;;;6154010;23;20442;-87
2023/12/18 08:33:27;;;;;;;22.42;11.77;;;;;;;;;;6114360;23;20080;-87
2023/12/18 08:35:59;;;;;;;21.20;12.63;;;;;;;;;;6130476;23;20017;-87
2023/12/18 08:39:26;;;;;;;26.30;11.98;;;;;;;;;;6152127;23;20052;-88
2023/12/18 08:41:54;;;;;;;19.45;10.80;;;;;;;;;;6152860;23;20006;-88
2023/12/18 08:44:39;;;;;;;22.98;12.48;;;;;;;;;;6154245;23;20008;-88
2023/12/18 08:47:19;;;;;;;23.40;12.50;;;;;;;;;;6152956;23;20469;-88
2023/12/18 08:49:47;;;;;;;23.27;13.27;;;;;;;;;;6153422;23;20097;-87
2023/12/18 08:52:15;;;;;;;20.30;11.95;;;;;;;;;;6153445;23;19997;-88
2023/12/18 08:54:56;;;;;;;20.80;11.65;;;;;;;;;;6153191;23;20335;-87
2023/12/18 08:57:29;;;;;;;18.83;11.45;;;;;;;;;;6153201;23;20136;-87
2023/12/18 08:59:58;;;;;;;20.75;12.25;;;;;;;;;;6152838;23;20100;-87
2023/12/18 09:02:23;;;;;;;24.27;13.70;;;;;;;;;;6152811;23;20029;-88
2023/12/18 09:04:56;;;;;;;24.77;11.95;;;;;;;;;;6154534;23;20009;-88
2023/12/18 09:07:25;;;;;;;23.05;12.52;;;;;;;;;;6153028;23;20324;-87
2023/12/18 09:12:56;;;;;;;23.88;12.48;;;;;;;;;;6140215;23;20443;-87
2023/12/18 09:15:25;;;;;;;24.55;12.82;;;;;;;;;;6156273;23;20025;-88
2023/12/18 09:17:53;;;;;;;24.63;12.25;;;;;;;;;;6154614;23;20088;-87
2023/12/18 09:20:18;;;;;;;21.20;11.65;;;;;;;;;;6154203;23;20067;-88
2023/12/18 09:22:52;;;;;;;21.33;12.45;;;;;;;;;;6154439;23;20430;-87
2023/12/18 09:25:32;;;;;;;19.08;12.18;;;;;;;;;;6153763;23;20394;-87
2023/12/18 09:28:03;;;;;;;26.33;12.68;;;;;;;;;;6155714;23;20059;-87
2023/12/18 09:30:38;;;;;;;21.25;11.90;;;;;;;;;;6153562;23;20009;-87
2023/12/18 09:33:10;;;;;;;20.58;11.88;;;;;;;;;;6155362;23;20343;-88
2023/12/18 09:35:39;;;;;;;25.52;12.20;;;;;;;;;;6154242;23;20016;-89
2023/12/18 09:38:05;;;;;;;23.95;12.38;;;;;;;;;;6123191;23;20014;-88
2023/12/18 09:40:53;;;;;;;21.45;12.02;;;;;;;;;;6123847;23;20344;-88
2023/12/18 09:43:23;;;;;;;22.17;12.43;;;;;;;;;;6112037;23;20006;-88
2023/12/18 09:45:49;;;;;;;26.60;13.18;;;;;;;;;;6099676;23;20471;-88
2023/12/18 09:48:16;;;;;;;18.52;11.63;;;;;;;;;;6099095;23;20006;-88
2023/12/18 09:51:11;;;;;;;23.00;12.75;;;;;;;;;;6099324;23;20014;-88
2023/12/18 09:54:03;;;;;;;22.73;11.90;;;;;;;;;;6124022;23;20463;-88
2023/12/18 09:56:48;;;;;;;19.73;11.45;;;;;;;;;;6099396;23;20013;-87
2023/12/18 09:59:28;;;;;;;24.38;12.73;;;;;;;;;;6099099;23;20145;-86
2023/12/18 10:01:54;;;;;;;25.55;12.68;;;;;;;;;;6098592;23;20002;-88
2023/12/18 10:04:23;;;;;;;24.88;12.98;;;;;;;;;;6099169;23;20048;-88
2023/12/18 10:07:12;;;;;;;22.92;11.98;;;;;;;;;;6098686;23;20013;-88
2023/12/18 10:09:39;;;;;;;22.60;12.63;;;;;;;;;;6138051;23;20509;-88
2023/12/18 10:12:05;;;;;;;22.23;13.32;;;;;;;;;;6155433;23;20002;-88
2023/12/18 10:14:34;;;;;;;22.42;12.63;;;;;;;;;;6154620;23;20012;-88
2023/12/18 10:17:06;;;;;;;21.70;11.98;;;;;;;;;;6153932;23;20006;-88
2023/12/18 10:19:43;;;;;;;23.77;13.27;;;;;;;;;;6155334;23;20479;-89
2023/12/18 10:22:16;;;;;;;23.67;12.70;;;;;;;;;;6155339;23;20465;-88
2023/12/18 10:24:42;;;;;;;26.88;13.68;;;;;;;;;;6153716;23;20005;-88
2023/12/18 10:28:17;;;;;;;21.17;13.15;;;;;;;;;;6153398;23;20016;-89
2023/12/18 10:30:15;;;;;;;24.35;12.75;;;;;;;;;;6142112;23;20006;-88
2023/12/18 10:32:49;;;;;;;23.05;12.65;;;;;;;;;;6154029;23;20009;-88
2023/12/18 10:35:41;;;;;;;25.90;12.93;;;;;;;;;;6153849;23;20002;-88
2023/12/18 10:38:09;;;;;;;21.75;12.80;;;;;;;;;;6129185;23;20098;-88
2023/12/18 10:40:34;;;;;;;26.23;13.23;;;;;;;;;;6129398;23;20013;-88
2023/12/18 10:43:42;;;;;;;21.80;12.98;;;;;;;;;;6155525;23;20008;-87
2023/12/18 10:46:29;;;;;;;21.60;12.60;;;;;;;;;;6112484;23;20064;-89
2023/12/18 10:49:08;;;;;;;22.17;12.77;;;;;;;;;;6154405;23;20453;-88
2023/12/18 10:51:37;;;;;;;25.40;13.02;;;;;;;;;;6129068;23;20009;-89
2023/12/18 10:54:18;;;;;;;20.60;12.82;;;;;;;;;;6128996;23;20060;-88
2023/12/18 10:57:09;;;;;;;29.35;13.15;;;;;;;;;;6129419;23;19997;-88
2023/12/18 10:59:53;;;;;;;24.45;12.52;;;;;;;;;;6128899;23;20370;-88
2023/12/18 11:02:21;;;;;;;19.45;11.80;;;;;;;;;;6128473;23;20092;-88
2023/12/18 11:04:56;;;;;;;21.92;12.55;;;;;;;;;;6151556;23;20435;-88
2023/12/18 11:07:30;;;;;;;19.80;11.80;;;;;;;;;;6153114;23;20033;-88
2023/12/18 11:10:10;;;;;;;22.65;12.25;;;;;;;;;;6127892;23;20336;-86
2023/12/18 11:12:40;;;;;;;22.40;12.20;;;;;;;;;;6127597;23;20427;-86
2023/12/18 11:15:48;;;;;;;22.98;12.45;;;;;;;;;;6128276;23;20029;-86
2023/12/18 11:18:59;;;;;;;23.85;12.45;;;;;;;;;;6127581;23;20100;-86
2023/12/18 11:21:27;;;;;;;23.45;12.60;;;;;;;;;;6118889;23;20009;-85
2023/12/18 11:23:54;;;;;;;22.27;12.43;;;;;;;;;;6128599;23;20405;-85
2023/12/18 11:26:34;;;;;;;24.77;12.70;;;;;;;;;;6128356;23;20005;-86
2023/12/18 11:29:37;;;;;;;21.05;12.18;;;;;;;;;;6128625;23;20009;-86
2023/12/18 11:32:06;;;;;;;22.23;12.05;;;;;;;;;;6128131;23;19997;-86
2023/12/18 11:34:31;;;;;;;23.88;13.07;;;;;;;;;;6128898;23;20084;-87
2023/12/18 11:36:59;;;;;;;21.77;12.10;;;;;;;;;;6147541;23;20435;-86
2023/12/18 11:39:46;;;;;;;23.40;11.93;;;;;;;;;;6153203;23;20016;-86
2023/12/18 11:42:12;;;;;;;21.42;12.32;;;;;;;;;;6153094;23;20025;-85
2023/12/18 11:44:38;;;;;;;22.95;12.48;;;;;;;;;;6153559;23;20017;-86
2023/12/18 11:47:03;;;;;;;25.02;13.52;;;;;;;;;;6153156;23;20334;-86
2023/12/18 11:49:30;;;;;;;21.45;12.75;;;;;;;;;;6152647;23;20013;-86
2023/12/18 11:52:17;;;;;;;21.02;12.52;;;;;;;;;;6151908;23;20498;-85
2023/12/18 11:54:59;;;;;;;25.13;12.65;;;;;;;;;;6153042;23;20367;-85
2023/12/18 11:57:51;;;;;;;21.17;13.07;;;;;;;;;;6152033;23;20359;-88
2023/12/18 12:00:16;;;;;;;22.35;12.15;;;;;;;;;;6152667;23;20375;-87
2023/12/18 12:03:10;;;;;;;23.27;12.68;;;;;;;;;;6153860;23;20055;-87
2023/12/18 12:06:48;;;;;;;22.65;11.98;;;;;;;;;;6151282;23;20028;-87
2023/12/18 12:09:39;;;;;;;23.77;11.87;;;;;;;;;;6129113;23;20006;-87
2023/12/18 12:13:34;;;;;;;20.35;11.88;;;;;;;;;;6150494;23;20223;-87
2023/12/18 12:15:28;;;;;;;20.23;10.48;;;;;;;;;;6138255;23;20009;-87
2023/12/18 12:18:07;;;;;;;24.70;12.00;;;;;;;;;;6152740;23;20037;-87
2023/12/18 12:20:33;;;;;;;22.15;12.15;;;;;;;;;;6152894;23;20064;-87
2023/12/18 12:22:59;;;;;;;19.85;11.88;;;;;;;;;;6152423;23;20096;-87
2023/12/18 12:25:33;;;;;;;24.33;12.48;;;;;;;;;;6152633;23;20040;-87
2023/12/18 12:32:16;;;;;;;23.70;12.23;;;;;;;;;;6128156;23;20020;-87
2023/12/18 12:34:42;;;;;;;21.13;11.65;;;;;;;;;;6113266;23;20033;-87
2023/12/18 12:37:54;;;;;;;24.02;12.40;;;;;;;;;;6157609;23;20036;-87
2023/12/18 12:40:47;;;;;;;21.63;11.70;;;;;;;;;;6142988;23;20083;-87
2023/12/18 12:44:11;;;;;;;22.30;11.98;;;;;;;;;;6153192;23;20032;-87
2023/12/18 12:46:42;;;;;;;21.70;11.85;;;;;;;;;;6185252;23;20084;-87
2023/12/18 12:49:48;;;;;;;;;;;;;;;;;;;;;
2023/12/18 12:52:14;;;;;;;20.98;11.43;;;;;;;;;;6158576;23;20080;-87
2023/12/18 12:54:45;;;;;;;20.45;11.45;;;;;;;;;;6158909;23;20346;-87
2023/12/18 12:57:14;;;;;;;19.70;11.82;;;;;;;;;;6158840;23;20070;-87
2023/12/18 12:59:52;;;;;;;22.25;11.82;;;;;;;;;;6185935;23;20090;-87
2023/12/18 13:02:18;;;;;;;18.75;11.80;;;;;;;;;;6158394;23;20435;-87
2023/12/18 13:04:47;;;;;;;20.67;12.45;;;;;;;;;;6151799;23;20032;-87
2023/12/18 13:07:13;;;;;;;22.60;11.82;;;;;;;;;;6125834;23;20005;-87
2023/12/18 13:09:39;;;;;;;21.80;11.60;;;;;;;;;;6155898;23;20005;-87
2023/12/18 13:12:06;;;;;;;18.55;11.82;;;;;;;;;;6183457;23;20001;-87
2023/12/18 13:14:31;;;;;;;27.00;11.93;;;;;;;;;;6157258;23;20502;-86
2023/12/18 13:16:57;;;;;;;17.58;11.38;;;;;;;;;;6156405;23;20032;-87
2023/12/18 13:19:22;;;;;;;24.15;11.75;;;;;;;;;;6181717;23;20028;-87
2023/12/18 13:21:48;;;;;;;21.67;11.65;;;;;;;;;;6155954;23;20013;-87
2023/12/18 13:24:26;;;;;;;18.92;11.43;;;;;;;;;;6156810;23;20005;-87
2023/12/18 13:26:51;;;;;;;17.90;11.27;;;;;;;;;;6155713;23;20071;-87
2023/12/18 13:29:17;;;;;;;23.08;11.75;;;;;;;;;;6156265;23;20005;-87
2023/12/18 13:31:42;;;;;;;18.70;11.35;;;;;;;;;;6156183;23;20012;-86
2023/12/18 13:34:08;;;;;;;21.33;12.00;;;;;;;;;;6156621;23;20012;-87
2023/12/18 13:36:34;;;;;;;20.05;11.43;;;;;;;;;;6152245;23;20384;-87
2023/12/18 13:39:00;;;;;;;22.42;11.40;;;;;;;;;;6181314;23;20065;-87
2023/12/18 13:41:32;;;;;;;19.20;11.07;;;;;;;;;;6182668;23;20549;-87
2023/12/18 13:44:00;;;;;;;21.38;11.25;;;;;;;;;;6154495;23;20055;-87
2023/12/18 13:46:35;;;;;;;18.77;10.27;;;;;;;;;;6153441;23;20009;-87
2023/12/18 13:49:00;;;;;;;19.17;10.70;;;;;;;;;;6154181;23;20386;-87
2023/12/18 13:51:26;;;;;;;20.33;12.32;;;;;;;;;;6154690;23;20029;-87
2023/12/18 13:54:01;;;;;;;19.58;10.80;;;;;;;;;;6154867;23;20005;-86
2023/12/18 13:56:27;;;;;;;20.73;11.07;;;;;;;;;;6150168;23;20083;-87
2023/12/18 13:58:53;;;;;;;19.25;11.50;;;;;;;;;;6153118;23;20519;-87
2023/12/18 14:01:21;;;;;;;20.42;11.45;;;;;;;;;;6154505;23;20019;-86
2023/12/18 14:05:05;;;;;;;;;;;;;;;;;;;;;
2023/12/18 14:07:31;;;;;;;20.55;10.27;;;;;;;;;;6179219;23;20087;-86
2023/12/18 14:10:34;;;;;;;21.75;11.73;;;;;;;;;;6152510;23;20029;-87
2023/12/18 14:13:00;;;;;;;19.38;11.07;;;;;;;;;;6181347;23;20011;-88
2023/12/18 14:15:25;;;;;;;17.20;10.77;;;;;;;;;;6156459;23;20088;-88
2023/12/18 14:20:49;;;;;;;18.77;10.52;;;;;;;;;;6175143;23;20344;-88
2023/12/18 14:23:40;;;;;;;;;;;;;;;;;;;;;
2023/12/18 14:26:15;;;;;;;22.08;10.68;;;;;;;;;;6179638;23;20080;-88
2023/12/18 14:29:16;;;;;;;16.30;10.85;;;;;;;;;;6180656;23;20660;-88
2023/12/18 14:31:47;;;;;;;20.15;10.98;;;;;;;;;;6137415;23;20009;-88
2023/12/18 14:34:12;;;;;;;22.42;10.90;;;;;;;;;;6155969;23;20097;-88
2023/12/18 14:37:07;;;;;;;16.90;10.68;;;;;;;;;;6151273;23;20048;-86
2023/12/18 14:39:34;;;;;;;22.70;11.23;;;;;;;;;;6155051;23;20013;-88
2023/12/18 14:42:00;;;;;;;20.67;10.32;;;;;;;;;;6155906;23;20015;-88
2023/12/18 14:44:58;;;;;;;17.77;10.20;;;;;;;;;;6154083;23;20009;-88
2023/12/18 14:47:24;;;;;;;20.52;11.05;;;;;;;;;;6171183;23;20001;-88
2023/12/18 14:49:49;;;;;;;20.33;10.65;;;;;;;;;;6149590;23;20450;-88
2023/12/18 14:52:21;;;;;;;17.85;10.80;;;;;;;;;;6149603;23;20090;-88
2023/12/18 14:54:57;;;;;;;19.80;11.90;;;;;;;;;;6149226;23;20009;-88
2023/12/18 14:57:31;;;;;;;22.65;11.40;;;;;;;;;;6148727;23;20013;-89
2023/12/18 15:00:00;;;;;;;19.27;11.70;;;;;;;;;;6149460;23;20067;-89
2023/12/18 15:02:28;;;;;;;16.33;10.95;;;;;;;;;;6150676;23;20068;-88
2023/12/18 15:08:23;;;;;;;21.75;11.73;;;;;;;;;;6174811;23;20037;-88
2023/12/18 15:10:51;;;;;;;20.02;11.43;;;;;;;;;;6149870;23;20017;-89
2023/12/18 15:13:19;;;;;;;19.13;10.68;;;;;;;;;;6147722;23;20012;-88
2023/12/18 15:15:50;;;;;;;21.45;11.55;;;;;;;;;;6175502;23;20027;-88
2023/12/18 15:18:23;;;;;;;18.10;10.80;;;;;;;;;;6148552;23;20014;-88
2023/12/18 15:20:49;;;;;;;17.10;10.43;;;;;;;;;;6149881;23;20124;-87
2023/12/18 15:23:17;;;;;;;19.52;10.70;;;;;;;;;;6146136;23;20059;-88
2023/12/18 15:25:56;;;;;;;19.40;11.27;;;;;;;;;;6146730;23;20438;-88
2023/12/18 15:28:30;;;;;;;19.67;11.27;;;;;;;;;;6149177;23;20036;-88
2023/12/18 15:31:04;;;;;;;22.58;11.45;;;;;;;;;;6149812;23;20047;-88
2023/12/18 15:33:30;;;;;;;19.98;11.55;;;;;;;;;;6147603;23;20337;-88
2023/12/18 15:36:34;;;;;;;;;;;;;;;;;;;;;
2023/12/18 15:39:05;;;;;;;16.70;9.80;;;;;;;;;;6170405;23;20363;-88
2023/12/18 15:41:46;;;;;;;18.83;10.85;;;;;;;;;;6149226;23;20005;-88
2023/12/18 15:44:15;;;;;;;16.02;9.65;;;;;;;;;;6147261;23;20548;-88
2023/12/18 15:47:00;;;;;;;18.90;10.85;;;;;;;;;;6148519;23;20001;-88
2023/12/18 15:49:33;;;;;;;21.65;10.70;;;;;;;;;;6148401;23;20052;-88
2023/12/18 15:52:17;;;;;;;20.73;10.70;;;;;;;;;;6149062;23;20480;-88